sensor_id;sensor_type;location;lat;lon;timestamp;P1;durP1;ratioP1;P2;durP2;ratioP2
13366;SDS011;6752;52.612;13.630;2022-09-20T00:00:21;9.85;;;4.07;;
13366;SDS011;6752;52.612;13.630;2022-09-20T00:05:23;11.10;;;4.30;;
13366;SDS011;6752;52.612;13.630;2022-09-20T00:10:26;9.90;;;4.65;;
13366;SDS011;6752;52.612;13.630;2022-09-20T00:15:28;10.23;;;4.30;;
13366;SDS011;6752;52.612;13.630;2022-09-20T00:20:33;11.00;;;4.07;;
13366;SDS011;6752;52.612;13.630;2022-09-20T00:30:38;9.38;;;4.37;;
13366;SDS011;6752;52.612;13.630;2022-09-20T00:35:44;10.30;;;4.75;;
13366;SDS011;6752;52.612;13.630;2022-09-20T00:40:46;10.15;;;4.25;;
13366;SDS011;6752;52.612;13.630;2022-09-20T00:45:51;8.60;;;4.17;;
13366;SDS011;6752;52.612;13.630;2022-09-20T00:50:55;10.55;;;4.00;;
13366;SDS011;6752;52.612;13.630;2022-09-20T01:01:01;12.40;;;4.53;;
13366;SDS011;6752;52.612;13.630;2022-09-20T01:06:08;8.13;;;4.35;;
13366;SDS011;6752;52.612;13.630;2022-09-20T01:11:09;10.20;;;5.00;;
13366;SDS011;6752;52.612;13.630;2022-09-20T01:21:17;12.80;;;4.80;;
13366;SDS011;6752;52.612;13.630;2022-09-20T01:31:56;10.32;;;4.10;;
13366;SDS011;6752;52.612;13.630;2022-09-20T01:37:23;11.43;;;5.00;;
13366;SDS011;6752;52.612;13.630;2022-09-20T01:42:15;10.82;;;4.30;;
13366;SDS011;6752;52.612;13.630;2022-09-20T01:47:24;9.50;;;4.72;;
13366;SDS011;6752;52.612;13.630;2022-09-20T01:58:17;7.85;;;3.53;;
13366;SDS011;6752;52.612;13.630;2022-09-20T02:04:09;8.55;;;3.70;;
13366;SDS011;6752;52.612;13.630;2022-09-20T02:08:47;9.63;;;3.97;;
13366;SDS011;6752;52.612;13.630;2022-09-20T02:14:02;6.53;;;3.15;;
13366;SDS011;6752;52.612;13.630;2022-09-20T02:35:18;7.10;;;4.43;;
13366;SDS011;6752;52.612;13.630;2022-09-20T02:40:24;10.98;;;4.65;;
13366;SDS011;6752;52.612;13.630;2022-09-20T03:01:34;7.37;;;3.90;;
13366;SDS011;6752;52.612;13.630;2022-09-20T03:17:48;4.90;;;3.43;;
13366;SDS011;6752;52.612;13.630;2022-09-20T03:33:45;9.82;;;4.12;;
13366;SDS011;6752;52.612;13.630;2022-09-20T03:49:51;6.05;;;3.47;;
13366;SDS011;6752;52.612;13.630;2022-09-20T03:55:06;10.15;;;4.80;;
13366;SDS011;6752;52.612;13.630;2022-09-20T04:05:17;9.23;;;4.65;;
13366;SDS011;6752;52.612;13.630;2022-09-20T04:15:41;7.87;;;3.87;;
13366;SDS011;6752;52.612;13.630;2022-09-20T04:20:44;9.05;;;3.67;;
13366;SDS011;6752;52.612;13.630;2022-09-20T04:25:45;9.25;;;3.92;;
13366;SDS011;6752;52.612;13.630;2022-09-20T04:30:47;9.68;;;5.05;;
13366;SDS011;6752;52.612;13.630;2022-09-20T04:41:37;7.77;;;3.67;;
13366;SDS011;6752;52.612;13.630;2022-09-20T04:46:46;10.75;;;4.80;;
13366;SDS011;6752;52.612;13.630;2022-09-20T04:51:54;11.00;;;4.57;;
13366;SDS011;6752;52.612;13.630;2022-09-20T04:57:08;10.02;;;4.55;;
13366;SDS011;6752;52.612;13.630;2022-09-20T05:02:27;9.75;;;4.37;;
13366;SDS011;6752;52.612;13.630;2022-09-20T05:07:46;7.55;;;4.32;;
13366;SDS011;6752;52.612;13.630;2022-09-20T05:29:17;12.80;;;4.65;;
13366;SDS011;6752;52.612;13.630;2022-09-20T05:34:19;7.62;;;4.50;;
13366;SDS011;6752;52.612;13.630;2022-09-20T05:39:32;9.30;;;5.28;;
13366;SDS011;6752;52.612;13.630;2022-09-20T05:50:45;11.90;;;5.57;;
13366;SDS011;6752;52.612;13.630;2022-09-20T06:01:25;9.10;;;4.25;;
13366;SDS011;6752;52.612;13.630;2022-09-20T06:06:12;8.52;;;4.50;;
13366;SDS011;6752;52.612;13.630;2022-09-20T06:16:54;8.00;;;3.70;;
13366;SDS011;6752;52.612;13.630;2022-09-20T06:22:21;7.50;;;4.10;;
13366;SDS011;6752;52.612;13.630;2022-09-20T06:27:25;9.43;;;2.90;;
13366;SDS011;6752;52.612;13.630;2022-09-20T06:32:26;6.43;;;3.60;;
13366;SDS011;6752;52.612;13.630;2022-09-20T06:37:43;9.73;;;3.45;;
13366;SDS011;6752;52.612;13.630;2022-09-20T06:43:04;5.00;;;3.53;;
13366;SDS011;6752;52.612;13.630;2022-09-20T06:48:06;6.68;;;3.20;;
13366;SDS011;6752;52.612;13.630;2022-09-20T06:53:09;7.03;;;3.75;;
13366;SDS011;6752;52.612;13.630;2022-09-20T07:03:13;8.57;;;3.53;;
13366;SDS011;6752;52.612;13.630;2022-09-20T07:08:15;6.80;;;3.10;;
13366;SDS011;6752;52.612;13.630;2022-09-20T07:13:18;6.77;;;3.00;;
13366;SDS011;6752;52.612;13.630;2022-09-20T07:18:20;7.55;;;2.78;;
13366;SDS011;6752;52.612;13.630;2022-09-20T07:23:23;7.65;;;2.80;;
13366;SDS011;6752;52.612;13.630;2022-09-20T07:28:29;8.60;;;3.42;;
13366;SDS011;6752;52.612;13.630;2022-09-20T07:33:27;10.35;;;3.60;;
13366;SDS011;6752;52.612;13.630;2022-09-20T07:38:29;10.38;;;4.18;;
13366;SDS011;6752;52.612;13.630;2022-09-20T07:43:32;12.18;;;3.60;;
13366;SDS011;6752;52.612;13.630;2022-09-20T07:48:34;10.25;;;4.10;;
13366;SDS011;6752;52.612;13.630;2022-09-20T07:53:40;8.02;;;3.35;;
13366;SDS011;6752;52.612;13.630;2022-09-20T07:58:42;11.60;;;3.97;;
13366;SDS011;6752;52.612;13.630;2022-09-20T08:03:44;8.38;;;3.33;;
13366;SDS011;6752;52.612;13.630;2022-09-20T08:08:47;9.80;;;3.12;;
13366;SDS011;6752;52.612;13.630;2022-09-20T08:13:51;8.30;;;2.70;;
13366;SDS011;6752;52.612;13.630;2022-09-20T08:18:54;6.03;;;2.50;;
13366;SDS011;6752;52.612;13.630;2022-09-20T08:23:59;7.57;;;2.05;;
13366;SDS011;6752;52.612;13.630;2022-09-20T08:29:01;3.45;;;1.42;;
13366;SDS011;6752;52.612;13.630;2022-09-20T08:34:04;11.25;;;2.10;;
13366;SDS011;6752;52.612;13.630;2022-09-20T08:39:06;8.00;;;2.03;;
13366;SDS011;6752;52.612;13.630;2022-09-20T08:44:16;6.25;;;2.28;;
13366;SDS011;6752;52.612;13.630;2022-09-20T08:49:22;5.15;;;1.30;;
13366;SDS011;6752;52.612;13.630;2022-09-20T08:54:20;4.80;;;1.40;;
13366;SDS011;6752;52.612;13.630;2022-09-20T08:59:23;5.70;;;1.55;;
13366;SDS011;6752;52.612;13.630;2022-09-20T09:04:34;5.68;;;1.30;;
13366;SDS011;6752;52.612;13.630;2022-09-20T09:09:36;5.37;;;1.20;;
13366;SDS011;6752;52.612;13.630;2022-09-20T09:14:39;3.35;;;0.90;;
13366;SDS011;6752;52.612;13.630;2022-09-20T09:19:54;5.70;;;0.80;;
13366;SDS011;6752;52.612;13.630;2022-09-20T09:35:31;8.02;;;0.90;;
13366;SDS011;6752;52.612;13.630;2022-09-20T09:45:35;3.33;;;0.62;;
13366;SDS011;6752;52.612;13.630;2022-09-20T09:50:37;3.60;;;0.95;;
13366;SDS011;6752;52.612;13.630;2022-09-20T10:06:53;5.03;;;0.98;;
13366;SDS011;6752;52.612;13.630;2022-09-20T10:12:19;5.55;;;0.82;;
13366;SDS011;6752;52.612;13.630;2022-09-20T10:17:21;5.07;;;0.80;;
13366;SDS011;6752;52.612;13.630;2022-09-20T10:27:47;2.08;;;0.55;;
13366;SDS011;6752;52.612;13.630;2022-09-20T10:38:13;2.90;;;0.98;;
13366;SDS011;6752;52.612;13.630;2022-09-20T10:48:32;3.65;;;1.80;;
13366;SDS011;6752;52.612;13.630;2022-09-20T10:58:49;1.75;;;0.70;;
13366;SDS011;6752;52.612;13.630;2022-09-20T11:09:28;5.70;;;1.15;;
13366;SDS011;6752;52.612;13.630;2022-09-20T11:24:36;1.45;;;0.70;;
13366;SDS011;6752;52.612;13.630;2022-09-20T11:34:50;2.00;;;0.85;;
13366;SDS011;6752;52.612;13.630;2022-09-20T11:39:57;1.12;;;0.85;;
13366;SDS011;6752;52.612;13.630;2022-09-20T11:45:02;3.35;;;0.95;;
13366;SDS011;6752;52.612;13.630;2022-09-20T12:00:52;3.00;;;1.15;;
13366;SDS011;6752;52.612;13.630;2022-09-20T12:05:57;7.65;;;3.17;;
13366;SDS011;6752;52.612;13.630;2022-09-20T12:11:03;3.35;;;1.33;;
13366;SDS011;6752;52.612;13.630;2022-09-20T12:16:06;2.90;;;0.95;;
13366;SDS011;6752;52.612;13.630;2022-09-20T12:21:17;3.28;;;1.17;;
13366;SDS011;6752;52.612;13.630;2022-09-20T12:36:27;5.95;;;1.70;;
13366;SDS011;6752;52.612;13.630;2022-09-20T12:41:43;6.20;;;2.37;;
13366;SDS011;6752;52.612;13.630;2022-09-20T12:46:33;6.93;;;2.10;;
13366;SDS011;6752;52.612;13.630;2022-09-20T12:51:34;3.83;;;1.48;;
13366;SDS011;6752;52.612;13.630;2022-09-20T12:56:55;3.22;;;1.00;;
13366;SDS011;6752;52.612;13.630;2022-09-20T13:02:06;5.47;;;1.15;;
13366;SDS011;6752;52.612;13.630;2022-09-20T13:07:27;2.20;;;0.95;;
13366;SDS011;6752;52.612;13.630;2022-09-20T13:12:26;2.53;;;0.90;;
13366;SDS011;6752;52.612;13.630;2022-09-20T13:17:29;8.07;;;0.88;;
13366;SDS011;6752;52.612;13.630;2022-09-20T13:22:40;3.83;;;1.10;;
13366;SDS011;6752;52.612;13.630;2022-09-20T13:27:46;3.12;;;1.00;;
13366;SDS011;6752;52.612;13.630;2022-09-20T13:32:49;11.35;;;2.90;;
13366;SDS011;6752;52.612;13.630;2022-09-20T13:37:55;6.37;;;1.20;;
13366;SDS011;6752;52.612;13.630;2022-09-20T13:43:03;1.08;;;0.65;;
13366;SDS011;6752;52.612;13.630;2022-09-20T13:48:06;2.05;;;0.60;;
13366;SDS011;6752;52.612;13.630;2022-09-20T13:53:14;1.25;;;0.70;;
13366;SDS011;6752;52.612;13.630;2022-09-20T13:58:25;1.20;;;0.70;;
13366;SDS011;6752;52.612;13.630;2022-09-20T14:03:34;1.55;;;0.80;;
13366;SDS011;6752;52.612;13.630;2022-09-20T14:08:41;1.33;;;0.75;;
13366;SDS011;6752;52.612;13.630;2022-09-20T14:13:45;1.67;;;0.75;;
13366;SDS011;6752;52.612;13.630;2022-09-20T14:18:47;3.47;;;0.80;;
13366;SDS011;6752;52.612;13.630;2022-09-20T14:23:53;1.05;;;0.50;;
13366;SDS011;6752;52.612;13.630;2022-09-20T14:28:54;2.40;;;0.90;;
13366;SDS011;6752;52.612;13.630;2022-09-20T14:33:57;2.08;;;0.80;;
13366;SDS011;6752;52.612;13.630;2022-09-20T14:39:02;3.47;;;0.90;;
13366;SDS011;6752;52.612;13.630;2022-09-20T14:54:28;3.60;;;0.95;;
13366;SDS011;6752;52.612;13.630;2022-09-20T15:04:39;5.07;;;1.27;;
13366;SDS011;6752;52.612;13.630;2022-09-20T15:09:41;1.67;;;0.85;;
13366;SDS011;6752;52.612;13.630;2022-09-20T15:14:44;5.85;;;1.10;;
13366;SDS011;6752;52.612;13.630;2022-09-20T15:19:46;2.45;;;0.93;;
13366;SDS011;6752;52.612;13.630;2022-09-20T15:24:48;2.78;;;0.95;;
13366;SDS011;6752;52.612;13.630;2022-09-20T15:29:51;1.42;;;0.80;;
13366;SDS011;6752;52.612;13.630;2022-09-20T15:34:53;1.83;;;0.90;;
13366;SDS011;6752;52.612;13.630;2022-09-20T15:39:56;1.65;;;0.80;;
13366;SDS011;6752;52.612;13.630;2022-09-20T15:44:58;1.15;;;0.77;;
13366;SDS011;6752;52.612;13.630;2022-09-20T15:50:01;1.50;;;0.80;;
13366;SDS011;6752;52.612;13.630;2022-09-20T15:55:03;1.92;;;0.93;;
13366;SDS011;6752;52.612;13.630;2022-09-20T16:00:05;0.98;;;0.60;;
13366;SDS011;6752;52.612;13.630;2022-09-20T16:05:08;2.25;;;0.90;;
13366;SDS011;6752;52.612;13.630;2022-09-20T16:10:10;1.98;;;0.90;;
13366;SDS011;6752;52.612;13.630;2022-09-20T16:15:12;2.80;;;1.08;;
13366;SDS011;6752;52.612;13.630;2022-09-20T16:20:15;2.35;;;1.12;;
13366;SDS011;6752;52.612;13.630;2022-09-20T16:25:17;2.47;;;1.50;;
13366;SDS011;6752;52.612;13.630;2022-09-20T16:30:20;2.35;;;1.20;;
13366;SDS011;6752;52.612;13.630;2022-09-20T16:35:22;1.98;;;1.12;;
13366;SDS011;6752;52.612;13.630;2022-09-20T16:40:25;3.87;;;1.67;;
13366;SDS011;6752;52.612;13.630;2022-09-20T16:45:30;2.80;;;1.40;;
13366;SDS011;6752;52.612;13.630;2022-09-20T16:50:32;4.80;;;2.17;;
13366;SDS011;6752;52.612;13.630;2022-09-20T16:55:42;3.40;;;1.92;;
13366;SDS011;6752;52.612;13.630;2022-09-20T17:00:40;3.20;;;1.65;;
13366;SDS011;6752;52.612;13.630;2022-09-20T17:05:42;3.67;;;1.77;;
13366;SDS011;6752;52.612;13.630;2022-09-20T17:10:46;3.45;;;1.62;;
13366;SDS011;6752;52.612;13.630;2022-09-20T17:20:50;3.20;;;1.80;;
13366;SDS011;6752;52.612;13.630;2022-09-20T17:26:02;4.78;;;1.90;;
13366;SDS011;6752;52.612;13.630;2022-09-20T17:31:04;3.28;;;1.75;;
13366;SDS011;6752;52.612;13.630;2022-09-20T17:36:07;5.47;;;1.90;;
13366;SDS011;6752;52.612;13.630;2022-09-20T17:41:12;3.75;;;1.77;;
13366;SDS011;6752;52.612;13.630;2022-09-20T17:46:15;5.65;;;2.22;;
13366;SDS011;6752;52.612;13.630;2022-09-20T17:56:18;6.90;;;3.00;;
13366;SDS011;6752;52.612;13.630;2022-09-20T18:01:30;5.03;;;2.75;;
13366;SDS011;6752;52.612;13.630;2022-09-20T18:06:45;6.25;;;2.58;;
13366;SDS011;6752;52.612;13.630;2022-09-20T18:11:50;6.22;;;3.20;;
13366;SDS011;6752;52.612;13.630;2022-09-20T18:16:52;5.32;;;2.92;;
13366;SDS011;6752;52.612;13.630;2022-09-20T18:22:00;6.25;;;3.30;;
13366;SDS011;6752;52.612;13.630;2022-09-20T18:32:04;5.90;;;3.55;;
13366;SDS011;6752;52.612;13.630;2022-09-20T18:37:06;7.40;;;3.87;;
13366;SDS011;6752;52.612;13.630;2022-09-20T18:42:09;6.40;;;3.60;;
13366;SDS011;6752;52.612;13.630;2022-09-20T18:47:14;6.53;;;3.40;;
13366;SDS011;6752;52.612;13.630;2022-09-20T18:52:14;6.12;;;4.00;;
13366;SDS011;6752;52.612;13.630;2022-09-20T18:57:16;6.47;;;3.78;;
13366;SDS011;6752;52.612;13.630;2022-09-20T19:13:09;5.97;;;3.87;;
13366;SDS011;6752;52.612;13.630;2022-09-20T19:24:17;6.32;;;3.62;;
13366;SDS011;6752;52.612;13.630;2022-09-20T19:29:21;7.35;;;3.47;;
13366;SDS011;6752;52.612;13.630;2022-09-20T19:34:23;6.20;;;3.95;;
13366;SDS011;6752;52.612;13.630;2022-09-20T19:44:55;6.32;;;4.10;;
13366;SDS011;6752;52.612;13.630;2022-09-20T19:50:08;5.82;;;4.22;;
13366;SDS011;6752;52.612;13.630;2022-09-20T19:55:11;5.47;;;3.78;;
13366;SDS011;6752;52.612;13.630;2022-09-20T20:00:14;5.05;;;3.53;;
13366;SDS011;6752;52.612;13.630;2022-09-20T20:05:19;5.80;;;3.87;;
13366;SDS011;6752;52.612;13.630;2022-09-20T20:10:23;4.70;;;3.28;;
13366;SDS011;6752;52.612;13.630;2022-09-20T20:15:46;5.10;;;3.55;;
13366;SDS011;6752;52.612;13.630;2022-09-20T20:20:48;5.50;;;3.72;;
13366;SDS011;6752;52.612;13.630;2022-09-20T20:31:09;5.62;;;3.90;;
13366;SDS011;6752;52.612;13.630;2022-09-20T20:36:12;5.90;;;3.78;;
13366;SDS011;6752;52.612;13.630;2022-09-20T20:41:15;5.35;;;3.60;;
13366;SDS011;6752;52.612;13.630;2022-09-20T20:46:17;9.82;;;4.12;;
13366;SDS011;6752;52.612;13.630;2022-09-20T20:51:20;6.80;;;4.07;;
13366;SDS011;6752;52.612;13.630;2022-09-20T20:56:23;5.55;;;3.92;;
13366;SDS011;6752;52.612;13.630;2022-09-20T21:01:28;7.95;;;3.87;;
13366;SDS011;6752;52.612;13.630;2022-09-20T21:06:33;5.50;;;3.33;;
13366;SDS011;6752;52.612;13.630;2022-09-20T21:16:41;4.60;;;3.47;;
13366;SDS011;6752;52.612;13.630;2022-09-20T21:21:43;5.22;;;3.72;;
13366;SDS011;6752;52.612;13.630;2022-09-20T21:26:45;5.35;;;3.80;;
13366;SDS011;6752;52.612;13.630;2022-09-20T21:31:47;5.35;;;3.80;;
13366;SDS011;6752;52.612;13.630;2022-09-20T21:36:50;5.62;;;3.67;;
13366;SDS011;6752;52.612;13.630;2022-09-20T21:41:52;5.27;;;3.40;;
13366;SDS011;6752;52.612;13.630;2022-09-20T21:46:55;5.78;;;3.70;;
13366;SDS011;6752;52.612;13.630;2022-09-20T21:51:57;7.18;;;3.97;;
13366;SDS011;6752;52.612;13.630;2022-09-20T21:56:59;6.68;;;3.53;;
13366;SDS011;6752;52.612;13.630;2022-09-20T22:02:02;6.25;;;4.43;;
13366;SDS011;6752;52.612;13.630;2022-09-20T22:07:04;7.53;;;4.97;;
13366;SDS011;6752;52.612;13.630;2022-09-20T22:12:07;5.90;;;4.07;;
13366;SDS011;6752;52.612;13.630;2022-09-20T22:17:10;8.73;;;4.70;;
13366;SDS011;6752;52.612;13.630;2022-09-20T22:22:12;6.60;;;4.53;;
13366;SDS011;6752;52.612;13.630;2022-09-20T22:27:15;5.93;;;4.22;;
13366;SDS011;6752;52.612;13.630;2022-09-20T22:32:17;5.22;;;3.70;;
13366;SDS011;6752;52.612;13.630;2022-09-20T22:37:20;6.00;;;4.62;;
13366;SDS011;6752;52.612;13.630;2022-09-20T22:42:22;6.45;;;4.57;;
13366;SDS011;6752;52.612;13.630;2022-09-20T22:47:25;8.95;;;4.87;;
13366;SDS011;6752;52.612;13.630;2022-09-20T22:52:27;6.15;;;4.47;;
13366;SDS011;6752;52.612;13.630;2022-09-20T22:57:30;6.30;;;4.45;;
13366;SDS011;6752;52.612;13.630;2022-09-20T23:02:32;6.45;;;4.10;;
13366;SDS011;6752;52.612;13.630;2022-09-20T23:07:35;5.97;;;4.50;;
13366;SDS011;6752;52.612;13.630;2022-09-20T23:12:41;7.65;;;4.55;;
13366;SDS011;6752;52.612;13.630;2022-09-20T23:17:46;5.87;;;3.90;;
13366;SDS011;6752;52.612;13.630;2022-09-20T23:22:52;5.32;;;3.72;;
13366;SDS011;6752;52.612;13.630;2022-09-20T23:27:57;7.60;;;4.05;;
13366;SDS011;6752;52.612;13.630;2022-09-20T23:33:00;5.37;;;3.85;;
13366;SDS011;6752;52.612;13.630;2022-09-20T23:38:02;5.73;;;3.70;;
13366;SDS011;6752;52.612;13.630;2022-09-20T23:43:05;5.03;;;3.65;;
13366;SDS011;6752;52.612;13.630;2022-09-20T23:48:07;5.62;;;4.40;;
13366;SDS011;6752;52.612;13.630;2022-09-20T23:53:14;5.55;;;4.28;;
13366;SDS011;6752;52.612;13.630;2022-09-20T23:58:22;5.70;;;4.10;;
